Weather observations for the past three days for
Rota Island, N. Mariana Is, Rota International Airport
Imperial (Metric)
Date Time (chst) Wind (mph) Vis. (mi.) Weather Sky Cond. Temperature (ºF) Relative Humidity Wind Chill (°F) Heat Index (°F) Pressure Precipitation (in)
Air Dwpt 6 hour altimeter (in) sea level (mb) 1 hr 3 hr 6 hr
Max. Min.
03 17:50 SW 16 7.00 Mostly Cloudy BKN012 BKN100 78.8 75.2 89% 82 29.81 0.0
03 16:50 SW 15 7.00 Mostly Cloudy SCT012 BKN100 80.6 77 89% 87 29.78 0.0
03 15:50 SW 15 7.00 Light Rain BKN012 BKN120 80.6 77 89% 87 29.78 0.0
03 14:50 SW 12 G 17 7.00 Showers in Vicinity BKN012 BKN120 80.6 77 89% 87 29.78 0.0
03 13:50 S 10 G 17 7.00 Showers in Vicinity BKN012 BKN120 80.6 77 89% 87 29.79 0.0
03 12:50 S 12 G 16 7.00 Mostly Cloudy BKN012 BKN120 80.6 78.8 94% 88 29.79 0.0
03 11:50 S 14 7.00 Showers in Vicinity BKN013 BKN120 78.8 77 94% 83 29.8 0.0
03 10:50 S 12 7.00 Mostly Cloudy SCT013 BKN120 80.6 78.8 94% 88 29.81 0.0
03 09:50 SW 13 7.00 Mostly Cloudy SCT013 BKN120 78.8 75.2 89% 82 29.81 0.0
03 08:50 S 12 7.00 Overcast BKN013 OVC100 80.6 77 89% 87 29.81 0.0
03 07:50 S 10 7.00 Showers in Vicinity BKN012 OVC100 78.8 77 94% 83 29.8 0.0
03 06:50 S 7 7.00 Light Rain BKN012 OVC100 78.8 75.2 89% 82 29.79 0.0
02 17:50 W 9 7.00 Overcast FEW011 BKN045 OVC120 78.8 75.2 89% 82 29.74 0.0
02 16:50 W 9 7.00 Overcast FEW011 BKN045 OVC120 78.8 77 94% 83 29.74 0.0
02 15:50 W 9 7.00 Overcast SCT011 BKN035 OVC100 78.8 75.2 89% 82 29.75 0.0
02 14:50 W 8 7.00 Showers in Vicinity Showers in Vicinity SCT009 BKN011 OVC100 77 75.2 94% 78 29.75 0.0
02 13:50 S 8 7.00 Light Rain SCT009 BKN011 OVC100 75.2 75.2 100% 73 29.78 0.0
02 12:50 S 12 7.00 Light Rain BKN008 OVC100 77 77 100% 78 29.79 0.0
02 11:50 N 8 7.00 Overcast BKN010 OVC120 78.8 75.2 89% 82 29.79 0.0
02 10:50 N 6 7.00 Light Rain BKN011 OVC120 80.6 77 89% 87 29.81 0.0
02 09:50 W 7 7.00 Overcast BKN012 OVC120 78.8 77 94% 83 29.82 0.0
02 08:50 W 5 7.00 Overcast BKN012 OVC120 78.8 77 94% 83 29.82 0.0
02 07:50 W 5 7.00 Overcast SCT013 OVC120 77 77 100% 78 29.81 0.0
02 06:50 W 6 7.00 Mostly Cloudy BKN013 BKN120 77 75.2 94% 78 29.8 0.0
01 17:50 Calm 7.00 Overcast FEW012 OVC120 77 73.4 89% 78 29.79 0.0
01 16:50 Calm 7.00 Overcast FEW012 OVC120 77 73.4 89% 78 29.77 0.0
01 15:50 N 5 7.00 Overcast FEW012 OVC120 77 75.2 94% 78 29.76 0.0
01 14:50 N 7 7.00 Overcast SCT011 OVC110 78.8 77 94% 83 29.77 0.0
01 13:50 N 7 7.00 Overcast SCT011 OVC110 77 75.2 94% 78 29.81 0.0
01 12:50 N 6 7.00 Overcast BKN010 OVC100 77 75.2 94% 78 29.84 0.0
01 11:50 NE 9 7.00 Light Rain BKN010 OVC100 77 75.2 94% 78 29.87 0.0
01 10:50 N 12 7.00 Showers in Vicinity BKN011 OVC100 78.8 75.2 89% 82 29.87 0.0
01 09:50 Calm 7.00 Showers in Vicinity BKN011 OVC100 77 75.2 94% 78 29.88 0.0
01 08:50 N 7 6.00 Rain Fog/Mist BKN011 OVC100 77 75.2 94% 78 29.88 0.0
01 07:50 N 10 7.00 Overcast BKN012 OVC100 78.8 75.2 89% 82 29.85 0.0
01 06:50 N 9 7.00 Overcast BKN013 OVC100 77 75.2 94% 78 29.84 0.0
Date Time (chst) Wind (mph) Vis. (mi.) Weather Sky Cond. Air Dwpt Max. Min. Relative Humidity Wind Chill (°F) Heat Index (°F) altimeter (in) sea level (mb) 1 hr 3 hr 6 hr
6 hour
Temperature (ºF) Pressure Precipitation (in)